createdAt,value
2017-10-27T00:02:16.821Z,12.30
2017-10-27T00:04:44.374Z,12.30
2017-10-27T00:07:11.940Z,12.30
2017-10-27T00:09:39.488Z,12.30
2017-10-27T00:12:07.038Z,12.20
2017-10-27T00:14:34.613Z,12.20
2017-10-27T00:17:02.551Z,12.20
2017-10-27T00:19:30.105Z,12.20
2017-10-27T00:21:57.667Z,12.20
2017-10-27T00:24:25.228Z,12.10
2017-10-27T00:26:52.758Z,12.10
2017-10-27T00:29:20.316Z,12.10
2017-10-27T00:31:47.869Z,12.10
2017-10-27T00:34:15.426Z,12.10
2017-10-27T00:36:42.991Z,12.10
2017-10-27T00:39:10.551Z,12.10
2017-10-27T00:41:38.520Z,12.10
2017-10-27T00:44:06.467Z,12.10
2017-10-27T00:46:34.019Z,12.10
2017-10-27T00:49:01.608Z,12.10
2017-10-27T00:51:29.165Z,12.10
2017-10-27T00:53:56.740Z,12.10
2017-10-27T00:56:24.287Z,12.10
2017-10-27T00:58:51.854Z,12.10
2017-10-27T01:01:19.404Z,12.00
2017-10-27T01:03:46.992Z,12.00
2017-10-27T01:06:14.529Z,12.00
2017-10-27T01:08:42.115Z,12.00
2017-10-27T01:11:09.683Z,12.00
2017-10-27T01:13:37.236Z,12.00
2017-10-27T01:16:04.788Z,12.00
2017-10-27T01:18:32.325Z,11.90
2017-10-27T01:20:59.908Z,11.90
2017-10-27T01:23:27.458Z,11.90
2017-10-27T01:25:55.007Z,11.90
2017-10-27T01:28:22.574Z,12.00
2017-10-27T01:30:50.113Z,12.00
2017-10-27T01:33:17.685Z,11.90
2017-10-27T01:35:45.236Z,11.90
2017-10-27T01:38:12.824Z,11.90
2017-10-27T01:40:40.370Z,11.90
2017-10-27T01:43:08.348Z,11.90
2017-10-27T01:45:35.910Z,11.90
2017-10-27T01:48:03.448Z,11.90
2017-10-27T01:50:31.069Z,11.90
2017-10-27T01:52:58.615Z,11.90
2017-10-27T01:55:26.180Z,11.90
2017-10-27T01:57:53.725Z,11.90
2017-10-27T02:00:21.300Z,11.90
2017-10-27T02:02:48.838Z,11.90
2017-10-27T02:05:16.374Z,11.90
2017-10-27T02:07:43.920Z,11.90
2017-10-27T02:10:11.473Z,11.90
2017-10-27T02:12:39.032Z,11.90
2017-10-27T02:15:06.575Z,11.90
2017-10-27T02:17:34.524Z,11.80
2017-10-27T02:20:02.059Z,11.90
2017-10-27T02:22:29.638Z,11.80
2017-10-27T02:24:57.182Z,11.80
2017-10-27T02:27:24.724Z,11.80
2017-10-27T02:29:52.295Z,11.80
2017-10-27T02:32:19.844Z,11.80
2017-10-27T02:34:47.403Z,11.80
2017-10-27T02:37:14.955Z,11.70
2017-10-27T02:39:42.510Z,11.70
2017-10-27T02:42:10.051Z,11.70
2017-10-27T02:44:37.633Z,11.70
2017-10-27T02:47:05.590Z,11.60
2017-10-27T02:49:33.137Z,11.70
2017-10-27T02:52:00.700Z,11.60
2017-10-27T02:54:28.250Z,11.60
2017-10-27T02:56:55.817Z,11.60
2017-10-27T02:59:23.747Z,11.60
2017-10-27T03:01:51.333Z,11.60
2017-10-27T03:04:18.894Z,11.60
2017-10-27T03:06:46.439Z,11.60
2017-10-27T03:09:14.014Z,11.60
2017-10-27T03:11:41.553Z,11.60
2017-10-27T03:14:09.505Z,11.50
2017-10-27T03:16:37.041Z,11.50
2017-10-27T03:19:04.606Z,11.50
2017-10-27T03:21:32.134Z,11.40
2017-10-27T03:24:00.088Z,11.30
2017-10-27T03:26:27.635Z,11.30
2017-10-27T03:28:55.202Z,11.20
2017-10-27T03:31:22.771Z,11.30
2017-10-27T03:33:50.325Z,11.20
2017-10-27T03:36:17.909Z,11.20
2017-10-27T03:38:45.439Z,11.10
2017-10-27T03:41:13.004Z,11.20
2017-10-27T03:43:40.589Z,11.20
2017-10-27T03:46:08.124Z,11.20
2017-10-27T03:48:35.693Z,11.20
2017-10-27T03:51:03.240Z,11.10
2017-10-27T03:53:30.826Z,11.10
2017-10-27T03:55:58.363Z,11.10
2017-10-27T03:58:26.322Z,11.10
2017-10-27T04:00:53.876Z,11.10
2017-10-27T04:03:21.436Z,11.10
2017-10-27T04:05:49.000Z,11.10
2017-10-27T04:08:16.533Z,11.10
2017-10-27T04:10:44.500Z,11.10
2017-10-27T04:13:12.457Z,11.10
2017-10-27T04:15:39.999Z,11.10
2017-10-27T04:18:07.554Z,11.10
2017-10-27T04:20:35.100Z,11.10
2017-10-27T04:23:02.649Z,11.10
2017-10-27T04:25:30.187Z,11.10
2017-10-27T04:27:57.741Z,11.10
2017-10-27T04:30:25.317Z,11.10
2017-10-27T04:32:52.880Z,11.20
2017-10-27T04:35:20.424Z,11.20
2017-10-27T04:37:47.978Z,11.20
2017-10-27T04:40:15.522Z,11.20
2017-10-27T04:42:43.099Z,11.20
2017-10-27T04:45:10.652Z,11.10
2017-10-27T04:47:38.223Z,11.10
2017-10-27T04:50:05.742Z,11.10
2017-10-27T04:52:33.298Z,11.10
2017-10-27T04:55:00.878Z,11.00
2017-10-27T04:57:28.435Z,11.00
2017-10-27T04:59:55.970Z,10.90
2017-10-27T05:02:23.533Z,10.90
2017-10-27T05:04:51.086Z,10.80
2017-10-27T05:07:18.664Z,10.80
2017-10-27T05:09:46.602Z,10.70
2017-10-27T05:12:14.139Z,10.80
2017-10-27T05:14:41.680Z,10.70
2017-10-27T05:17:15.031Z,10.70
2017-10-27T05:19:48.288Z,10.70
2017-10-27T05:22:21.426Z,10.60
2017-10-27T05:24:48.984Z,10.60
2017-10-27T05:27:16.519Z,10.60
2017-10-27T05:29:44.052Z,10.60
2017-10-27T05:32:11.593Z,10.50
2017-10-27T05:34:39.545Z,10.60
2017-10-27T05:37:07.088Z,10.60
2017-10-27T05:39:34.649Z,10.60
2017-10-27T05:42:02.177Z,10.60
2017-10-27T05:44:29.734Z,10.60
2017-10-27T05:46:57.277Z,10.60
2017-10-27T05:49:24.836Z,10.60
2017-10-27T05:51:52.368Z,10.70
2017-10-27T05:54:19.924Z,10.70
2017-10-27T05:56:47.469Z,10.60
2017-10-27T05:59:15.026Z,10.60
2017-10-27T06:01:42.581Z,10.60
2017-10-27T06:04:10.132Z,10.60
2017-10-27T06:06:38.077Z,10.60
2017-10-27T06:09:05.619Z,10.60
2017-10-27T06:11:33.189Z,10.60
2017-10-27T06:14:00.718Z,10.60
2017-10-27T06:16:28.260Z,10.60
2017-10-27T06:18:55.810Z,10.60
2017-10-27T06:21:23.381Z,10.60
2017-10-27T06:23:50.917Z,10.60
2017-10-27T06:26:18.475Z,10.60
2017-10-27T06:28:46.016Z,10.60
2017-10-27T06:31:13.564Z,10.60
2017-10-27T06:33:41.095Z,10.50
2017-10-27T06:36:09.049Z,10.50
2017-10-27T06:38:36.605Z,10.50
2017-10-27T06:41:04.158Z,10.50
2017-10-27T06:43:31.697Z,10.50
2017-10-27T06:45:59.648Z,10.50
2017-10-27T06:48:27.190Z,10.50
2017-10-27T06:50:54.753Z,10.50
2017-10-27T06:53:22.288Z,10.50
2017-10-27T06:55:49.827Z,10.40
2017-10-27T06:58:17.390Z,10.40
2017-10-27T07:00:44.939Z,10.50
2017-10-27T07:03:12.511Z,10.40
2017-10-27T07:05:40.048Z,10.50
2017-10-27T07:08:07.605Z,10.50
2017-10-27T07:10:35.149Z,10.40
2017-10-27T07:13:02.702Z,10.50
2017-10-27T07:15:30.226Z,10.40
2017-10-27T07:17:57.780Z,10.30
2017-10-27T07:20:25.304Z,10.30
2017-10-27T07:22:52.844Z,10.20
2017-10-27T07:25:20.386Z,10.20
2017-10-27T07:27:47.954Z,10.10
2017-10-27T07:30:15.477Z,10.10
2017-10-27T07:32:43.032Z,10.10
2017-10-27T07:35:10.973Z,10.10
2017-10-27T07:37:38.529Z,10.20
2017-10-27T07:40:06.076Z,10.20
2017-10-27T07:42:34.064Z,10.20
2017-10-27T07:45:01.614Z,10.20
2017-10-27T07:47:29.162Z,10.20
2017-10-27T07:49:56.733Z,10.30
2017-10-27T07:52:24.272Z,10.30
2017-10-27T07:54:51.821Z,10.30
2017-10-27T07:57:19.409Z,10.40
2017-10-27T07:59:46.981Z,10.40
2017-10-27T08:02:14.515Z,10.40
2017-10-27T08:04:42.457Z,10.50
2017-10-27T08:07:09.987Z,10.50
2017-10-27T08:09:37.550Z,10.50
2017-10-27T08:12:05.488Z,10.50
2017-10-27T08:14:33.041Z,10.50
2017-10-27T08:17:00.575Z,10.50
2017-10-27T08:19:28.134Z,10.50
2017-10-27T08:21:56.061Z,10.50
2017-10-27T08:24:23.604Z,10.50
2017-10-27T08:26:51.158Z,10.50
2017-10-27T08:29:19.101Z,10.50
2017-10-27T08:31:46.646Z,10.50
2017-10-27T08:34:14.202Z,10.50
2017-10-27T08:36:41.730Z,10.50
2017-10-27T08:39:09.266Z,10.50
2017-10-27T08:41:36.831Z,10.50
2017-10-27T08:44:04.361Z,10.50
2017-10-27T08:46:32.318Z,10.60
2017-10-27T08:48:59.858Z,10.60
2017-10-27T08:51:27.413Z,10.60
2017-10-27T08:53:54.942Z,10.60
2017-10-27T08:56:22.489Z,10.60
2017-10-27T08:58:50.014Z,10.60
2017-10-27T09:01:17.958Z,10.70
2017-10-27T09:03:45.492Z,10.70
2017-10-27T09:06:13.036Z,10.70
2017-10-27T09:08:40.591Z,10.80
2017-10-27T09:11:08.152Z,10.80
2017-10-27T09:13:35.684Z,10.90
2017-10-27T09:16:03.235Z,10.90
2017-10-27T09:18:30.785Z,10.90
2017-10-27T09:20:58.733Z,11.00
2017-10-27T09:23:26.270Z,11.00
2017-10-27T09:25:53.823Z,11.10
2017-10-27T09:28:21.364Z,11.00
2017-10-27T09:30:48.914Z,11.10
2017-10-27T09:33:16.448Z,11.20
2017-10-27T09:35:44.000Z,11.30
2017-10-27T09:38:11.952Z,11.60
2017-10-27T09:40:39.490Z,11.60
2017-10-27T09:43:07.050Z,11.80
2017-10-27T09:45:34.588Z,12.10
2017-10-27T09:48:02.546Z,12.30
2017-10-27T09:50:30.090Z,12.40
2017-10-27T09:52:57.688Z,12.40
2017-10-27T09:55:25.229Z,12.30
2017-10-27T09:57:52.780Z,12.20
2017-10-27T10:00:20.319Z,12.00
2017-10-27T10:02:47.888Z,11.80
2017-10-27T10:05:15.817Z,11.60
2017-10-27T10:07:43.373Z,11.60
2017-10-27T10:10:10.896Z,11.50
2017-10-27T10:12:38.445Z,11.40
2017-10-27T10:15:05.970Z,11.40
2017-10-27T10:17:33.521Z,11.40
2017-10-27T10:20:01.052Z,11.40
2017-10-27T10:22:28.640Z,11.50
2017-10-27T10:24:56.179Z,11.60
2017-10-27T10:27:23.723Z,11.70
2017-10-27T10:29:51.678Z,11.80
2017-10-27T10:32:19.208Z,11.80
2017-10-27T10:34:46.766Z,11.70
2017-10-27T10:37:14.320Z,11.70
2017-10-27T10:39:41.889Z,11.60
2017-10-27T10:42:09.816Z,11.70
2017-10-27T10:44:37.364Z,11.70
2017-10-27T10:47:04.889Z,11.70
2017-10-27T10:49:32.435Z,11.80
2017-10-27T10:51:59.964Z,11.90
2017-10-27T10:54:27.930Z,12.10
2017-10-27T10:56:55.855Z,12.10
2017-10-27T10:59:23.406Z,12.10
2017-10-27T11:01:50.939Z,12.10
2017-10-27T11:04:18.498Z,12.00
2017-10-27T11:06:46.028Z,11.90
2017-10-27T11:09:13.594Z,11.80
2017-10-27T11:11:41.147Z,11.70
2017-10-27T11:14:09.105Z,11.60
2017-10-27T11:16:36.633Z,11.60
2017-10-27T11:19:04.171Z,11.50
2017-10-27T11:21:31.721Z,11.50
2017-10-27T11:23:59.258Z,11.50
2017-10-27T11:26:26.863Z,11.50
2017-10-27T11:28:54.394Z,11.50
2017-10-27T11:31:21.947Z,11.50
2017-10-27T11:33:49.494Z,11.50
2017-10-27T11:36:17.441Z,11.70
2017-10-27T11:38:44.988Z,11.70
2017-10-27T11:41:12.546Z,11.80
2017-10-27T11:43:40.094Z,11.80
2017-10-27T11:46:07.650Z,11.90
2017-10-27T11:48:35.173Z,12.10
2017-10-27T11:51:02.730Z,12.10
2017-10-27T11:53:30.275Z,12.20
2017-10-27T11:55:58.214Z,12.40
2017-10-27T11:58:25.759Z,12.40
2017-10-27T12:00:53.319Z,12.50
2017-10-27T12:03:21.254Z,12.70
2017-10-27T12:05:48.818Z,12.70
2017-10-27T12:08:16.364Z,12.70
2017-10-27T12:10:43.898Z,12.80
2017-10-27T12:13:11.941Z,12.60
2017-10-27T12:15:39.478Z,12.60
2017-10-27T12:18:07.025Z,12.50
2017-10-27T12:20:34.590Z,12.30
2017-10-27T12:23:02.537Z,11.80
2017-10-27T12:25:30.076Z,11.80
2017-10-27T12:27:57.622Z,11.60
2017-10-27T12:30:25.550Z,11.60
2017-10-27T12:32:53.101Z,11.60
2017-10-27T12:35:20.630Z,11.60
2017-10-27T12:37:48.174Z,11.50
2017-10-27T12:40:15.712Z,11.60
2017-10-27T12:42:43.277Z,11.80
2017-10-27T12:45:10.825Z,11.80
2017-10-27T12:47:38.770Z,11.90
2017-10-27T12:50:06.288Z,11.90
2017-10-27T12:52:34.308Z,11.80
2017-10-27T12:55:01.845Z,11.80
2017-10-27T12:57:29.778Z,11.70
2017-10-27T12:59:57.324Z,11.70
2017-10-27T13:02:24.852Z,11.80
2017-10-27T13:04:52.802Z,11.80
2017-10-27T13:07:20.335Z,11.90
2017-10-27T13:09:47.876Z,12.00
2017-10-27T13:12:15.797Z,12.50
2017-10-27T13:14:43.353Z,12.50
2017-10-27T13:17:10.926Z,12.60
2017-10-27T13:19:38.486Z,12.60
2017-10-27T13:22:06.409Z,12.50
2017-10-27T13:24:33.966Z,12.50
2017-10-27T13:27:01.505Z,12.40
2017-10-27T13:29:29.077Z,12.40
2017-10-27T13:31:57.025Z,12.60
2017-10-27T13:34:24.582Z,12.70
2017-10-27T13:36:52.108Z,12.70
2017-10-27T13:39:19.663Z,12.80
2017-10-27T13:41:47.597Z,13.10
2017-10-27T13:44:15.156Z,13.00
2017-10-27T13:46:42.693Z,13.20
2017-10-27T13:49:10.239Z,13.30
2017-10-27T13:51:37.783Z,13.30
2017-10-27T13:54:05.319Z,13.20
2017-10-27T13:56:32.873Z,13.10
2017-10-27T13:59:00.404Z,12.90
2017-10-27T14:01:27.972Z,12.80
2017-10-27T14:03:55.530Z,12.80
2017-10-27T14:06:23.101Z,12.70
2017-10-27T14:08:50.671Z,12.60
2017-10-27T14:11:18.222Z,12.60
2017-10-27T14:13:45.771Z,12.50
2017-10-27T14:16:13.326Z,12.50
2017-10-27T14:18:40.892Z,12.50
2017-10-27T14:21:08.448Z,12.50
2017-10-27T14:23:35.988Z,12.50
2017-10-27T14:26:03.540Z,12.60
2017-10-27T14:28:31.468Z,12.50
2017-10-27T14:30:59.010Z,12.50
2017-10-27T14:33:27.367Z,12.50
2017-10-27T14:35:55.343Z,12.40
2017-10-27T14:38:22.887Z,12.40
2017-10-27T14:40:50.425Z,12.40
2017-10-27T14:43:17.980Z,12.40
2017-10-27T14:45:45.917Z,12.40
2017-10-27T14:48:13.482Z,12.40
2017-10-27T14:50:41.055Z,12.40
2017-10-27T14:53:08.616Z,12.40
2017-10-27T14:55:36.150Z,12.40
2017-10-27T14:58:04.085Z,12.40
2017-10-27T15:00:31.620Z,12.40
2017-10-27T15:02:59.183Z,12.40
2017-10-27T15:05:26.729Z,12.40
2017-10-27T15:07:54.310Z,12.40
2017-10-27T15:10:22.244Z,12.40
2017-10-27T15:12:49.812Z,12.40
2017-10-27T15:15:17.342Z,12.40
2017-10-27T15:17:45.273Z,12.30
2017-10-27T15:20:12.826Z,12.30
2017-10-27T15:22:41.040Z,12.30
2017-10-27T15:25:08.582Z,12.30
2017-10-27T15:27:36.158Z,12.30
2017-10-27T15:30:03.700Z,12.30
2017-10-27T15:32:31.221Z,12.30
2017-10-27T15:34:58.768Z,12.20
2017-10-27T15:37:26.345Z,12.20
2017-10-27T15:39:53.915Z,12.20
2017-10-27T15:42:21.449Z,12.20
2017-10-27T15:44:49.406Z,12.20
2017-10-27T15:47:16.944Z,12.20
2017-10-27T15:49:44.503Z,12.20
2017-10-27T15:52:12.044Z,12.20
2017-10-27T15:54:39.989Z,12.10
2017-10-27T15:57:07.529Z,12.10
2017-10-27T15:59:35.086Z,12.00
2017-10-27T16:02:03.974Z,11.90
2017-10-27T16:04:31.934Z,11.90
2017-10-27T16:06:59.473Z,11.90
2017-10-27T16:09:27.022Z,11.80
2017-10-27T16:11:54.567Z,11.80
2017-10-27T16:14:22.137Z,11.70
2017-10-27T16:16:49.793Z,11.70
2017-10-27T16:19:17.382Z,11.70
2017-10-27T16:21:44.917Z,11.60
2017-10-27T16:24:12.459Z,11.60
2017-10-27T16:26:39.992Z,11.50
2017-10-27T16:29:07.533Z,11.50
2017-10-27T16:31:35.086Z,11.40
2017-10-27T16:34:02.641Z,11.40
2017-10-27T16:36:30.678Z,11.30
2017-10-27T16:38:58.197Z,11.30
2017-10-27T16:41:25.756Z,11.20
2017-10-27T16:43:53.698Z,11.10
2017-10-27T16:46:21.301Z,11.10
2017-10-27T16:48:49.232Z,11.00
2017-10-27T16:51:16.795Z,11.00
2017-10-27T16:53:44.340Z,10.90
2017-10-27T16:56:12.306Z,10.80
2017-10-27T16:58:40.242Z,10.80
2017-10-27T17:01:07.803Z,10.80
2017-10-27T17:03:35.342Z,10.70
2017-10-27T17:06:02.889Z,10.70
2017-10-27T17:08:30.427Z,10.60
2017-10-27T17:10:58.002Z,10.50
2017-10-27T17:13:25.533Z,10.50
2017-10-27T17:15:53.105Z,10.40
2017-10-27T17:18:21.126Z,10.30
2017-10-27T17:20:48.654Z,10.30
2017-10-27T17:23:16.614Z,10.20
2017-10-27T17:25:44.576Z,10.20
2017-10-27T17:28:12.128Z,10.20
2017-10-27T17:30:39.669Z,10.20
2017-10-27T17:33:07.221Z,10.10
2017-10-27T17:35:34.754Z,10.10
2017-10-27T17:38:02.320Z,10.10
2017-10-27T17:40:29.849Z,10.10
2017-10-27T17:42:57.422Z,10.10
2017-10-27T17:45:25.356Z,10.20
2017-10-27T17:47:52.907Z,10.30
2017-10-27T17:50:20.551Z,10.30
2017-10-27T17:52:48.119Z,10.40
2017-10-27T17:55:16.047Z,10.50
2017-10-27T17:57:43.619Z,10.50
2017-10-27T18:00:11.522Z,10.50
2017-10-27T18:02:39.089Z,10.60
2017-10-27T18:05:06.639Z,10.60
2017-10-27T18:07:34.178Z,10.60
2017-10-27T18:10:01.913Z,10.60
2017-10-27T18:12:29.803Z,10.70
2017-10-27T18:14:57.364Z,10.70
2017-10-27T18:17:24.892Z,10.70
2017-10-27T18:19:52.446Z,10.80
2017-10-27T18:22:20.417Z,10.80
2017-10-27T18:24:48.367Z,10.70
2017-10-27T18:27:15.915Z,10.80
2017-10-27T18:29:43.514Z,10.70
2017-10-27T18:32:11.066Z,10.70
2017-10-27T18:34:38.633Z,10.70
2017-10-27T18:37:06.161Z,10.60
2017-10-27T18:39:34.142Z,10.60
2017-10-27T18:42:01.733Z,10.60
2017-10-27T18:44:29.306Z,10.60
2017-10-27T18:46:56.840Z,10.60
2017-10-27T18:49:24.798Z,10.50
2017-10-27T18:51:52.336Z,10.50
2017-10-27T18:54:19.911Z,10.50
2017-10-27T18:56:47.629Z,10.40
2017-10-27T18:59:15.200Z,10.40
2017-10-27T19:01:42.808Z,10.40
2017-10-27T19:04:10.746Z,10.40
2017-10-27T19:06:38.298Z,10.40
2017-10-27T19:09:05.837Z,10.30
2017-10-27T19:11:33.391Z,10.30
2017-10-27T19:14:00.934Z,10.20
2017-10-27T19:16:28.485Z,10.20
2017-10-27T19:18:56.017Z,10.20
2017-10-27T19:21:23.580Z,10.10
2017-10-27T19:23:51.111Z,10.10
2017-10-27T19:26:18.660Z,10.10
2017-10-27T19:28:46.210Z,10.10
2017-10-27T19:31:13.745Z,10.10
2017-10-27T19:33:41.277Z,10.10
2017-10-27T19:36:08.820Z,10.00
2017-10-27T19:38:36.727Z,10.10
2017-10-27T19:41:04.269Z,10.10
2017-10-27T19:43:32.200Z,10.00
2017-10-27T19:45:59.737Z,10.00
2017-10-27T19:48:27.274Z,10.00
2017-10-27T19:50:54.806Z,10.00
2017-10-27T19:53:22.381Z,10.00
2017-10-27T19:55:49.901Z,9.90
2017-10-27T19:58:17.451Z,9.90
2017-10-27T20:00:44.997Z,10.00
2017-10-27T20:03:12.533Z,10.00
2017-10-27T20:05:40.065Z,10.10
2017-10-27T20:08:07.617Z,10.10
2017-10-27T20:10:35.167Z,10.10
2017-10-27T20:13:02.746Z,10.10
2017-10-27T20:15:30.293Z,10.10
2017-10-27T20:17:57.834Z,10.10
2017-10-27T20:20:25.756Z,10.10
2017-10-27T20:22:53.301Z,10.10
2017-10-27T20:25:20.891Z,10.10
2017-10-27T20:27:48.429Z,10.10
2017-10-27T20:30:16.360Z,10.10
2017-10-27T20:32:43.921Z,10.20
2017-10-27T20:35:11.473Z,10.10
2017-10-27T20:37:39.027Z,10.10
2017-10-27T20:40:06.983Z,10.10
2017-10-27T20:42:34.512Z,10.20
2017-10-27T20:45:02.079Z,10.10
2017-10-27T20:47:29.624Z,10.20
2017-10-27T20:49:57.545Z,10.20
2017-10-27T20:52:25.091Z,10.20
2017-10-27T20:54:52.621Z,10.20
2017-10-27T20:57:20.166Z,10.20
2017-10-27T20:59:47.705Z,10.20
2017-10-27T21:02:15.246Z,10.20
2017-10-27T21:04:42.795Z,10.10
2017-10-27T21:07:10.334Z,10.10
2017-10-27T21:09:37.881Z,10.10
2017-10-27T21:12:05.810Z,10.10
2017-10-27T21:14:33.345Z,10.10
2017-10-27T21:17:00.904Z,10.10
2017-10-27T21:19:28.831Z,10.10
2017-10-27T21:21:56.393Z,10.10
2017-10-27T21:24:23.933Z,10.10
2017-10-27T21:26:51.877Z,10.10
2017-10-27T21:29:19.411Z,10.10
2017-10-27T21:31:46.930Z,10.10
2017-10-27T21:34:14.540Z,10.10
2017-10-27T21:36:42.092Z,10.10
2017-10-27T21:39:10.030Z,10.10
2017-10-27T21:41:37.578Z,10.20
2017-10-27T21:44:05.145Z,10.10
2017-10-27T21:46:32.702Z,10.10
2017-10-27T21:49:00.635Z,10.10
2017-10-27T21:51:28.183Z,10.20
2017-10-27T21:53:55.717Z,10.10
2017-10-27T21:56:23.257Z,10.10
2017-10-27T21:58:50.781Z,10.10
2017-10-27T22:01:18.366Z,10.10
2017-10-27T22:03:45.933Z,10.10
2017-10-27T22:06:13.468Z,10.00
2017-10-27T22:08:41.432Z,10.00
2017-10-27T22:11:08.970Z,10.00
2017-10-27T22:13:36.643Z,10.00
2017-10-27T22:16:04.161Z,9.90
2017-10-27T22:18:31.733Z,9.90
2017-10-27T22:20:59.673Z,9.80
2017-10-27T22:23:27.209Z,9.90
2017-10-27T22:25:54.749Z,9.80
2017-10-27T22:28:22.276Z,9.80
2017-10-27T22:30:49.822Z,9.80
2017-10-27T22:33:17.372Z,9.80
2017-10-27T22:35:45.318Z,9.70
2017-10-27T22:38:12.842Z,9.80
2017-10-27T22:40:40.370Z,9.70
2017-10-27T22:43:07.900Z,9.60
2017-10-27T22:45:35.427Z,9.60
2017-10-27T22:48:02.963Z,9.60
2017-10-27T22:50:30.493Z,9.60
2017-10-27T22:52:58.450Z,9.50
2017-10-27T22:55:26.016Z,9.60
2017-10-27T22:57:53.574Z,9.50
2017-10-27T23:00:21.104Z,9.50
2017-10-27T23:02:48.628Z,9.40
2017-10-27T23:05:16.169Z,9.40
2017-10-27T23:07:49.318Z,9.40
2017-10-27T23:10:17.287Z,9.40
2017-10-27T23:12:44.827Z,9.50
2017-10-27T23:15:12.362Z,9.40
2017-10-27T23:17:39.892Z,9.50
2017-10-27T23:20:07.425Z,9.40
2017-10-27T23:22:34.952Z,9.40
2017-10-27T23:25:02.535Z,9.40
2017-10-27T23:27:30.491Z,9.40
2017-10-27T23:29:58.023Z,9.40
2017-10-27T23:32:25.566Z,9.40
2017-10-27T23:34:53.647Z,9.40
2017-10-27T23:37:21.577Z,9.40
2017-10-27T23:39:49.104Z,9.40
2017-10-27T23:42:17.044Z,9.40
2017-10-27T23:44:44.599Z,9.50
2017-10-27T23:47:12.182Z,9.50
2017-10-27T23:49:39.698Z,9.50
2017-10-27T23:52:07.624Z,9.50
2017-10-27T23:54:35.165Z,9.50
2017-10-27T23:57:02.685Z,9.50
2017-10-27T23:59:30.225Z,9.50
